ESCO2: Skeleton Creek at Enid, OK

Data processed at Fri Dec 08 2017 23:03


All information presented herein is the property of the government of the United States of America and may be revised or deleted at any time without prior notice.
Dissemination of this information without the expressed written consent of the Public Affairs Office, Tulsa District U.S. Army Corps of Engineers is strictly prohibited.
These data are gathered electronically and, as presented, have not undergone any form of quality control. These data are not guaranteed to be valid or correct.
Go to home page.
Go to station list.

Downstream station:


Previous Day
Next Day
Current Day
    
SHEF ID:       ESCO2     Skeleton Creek at Enid, OK
STATION TYPE:  

               PRECIP     STAGE  RIV-FLOW  WTR-TEMP   CONDUCT  BAT-LOAD
                   in        ft       cfs         F   umho/cm      volt
              Ccp-Rev   Ccp-Rev   Ccp-Rev   Ccp-Rev   Ccp-Rev   Ccp-Rev
(US/Central)
12/06 00:00      0.00      2.63        15     41.27      1241     12.73
12/06 01:00      0.00      2.67        18     40.87      1238     12.73
12/06 02:00      0.00      2.64        16     39.02      1232     12.65
12/06 03:00      0.00      2.63        15     38.70      1232     12.65
12/06 04:00      0.00      2.59        13     37.58      1234     12.57
12/06 05:00      0.00      2.59        13     37.11      1234     12.57
12/06 06:00      0.00      2.59        13     36.81      1236     12.57
12/06 07:00      0.00      2.61        14     36.54      1236     12.57
12/06 08:00      0.00      2.60        13     36.27      1239     12.57
12/06 09:00      0.00      2.61        14     37.26      1241     12.57
12/06 10:00      0.00      2.60        13     39.79      1241     12.89
12/06 11:00      0.00      2.59        13     43.50      1242     13.68
12/06 12:00      0.00      2.63        15     46.81      1241     13.60
12/06 13:00      0.00      2.61        14     48.74      1239     13.44
12/06 14:00      0.00      2.66        17     50.92      1243     13.44
12/06 15:00      0.00      2.64        16     50.97      1249     13.44
12/06 16:00      0.00      2.59        13     47.84      1233     13.44
12/06 17:00      0.00      2.58        12     44.89      1232     13.37
12/06 18:00      0.00      2.59        13     42.76      1236     13.05
12/06 19:00      0.00      2.59        13     41.22      1245     12.97
12/06 20:00      0.00      2.59        13     40.01      1256     12.89
12/06 21:00      0.00      2.59        13     39.25      1266     12.81
12/06 22:00      0.00      2.60        13     38.34      1272     12.81
12/06 23:00      0.00      2.62        14     38.14      1278     12.81